createdAt,value
2019-03-23T00:01:29.642Z,44.13
2019-03-23T00:04:00.812Z,47.23
2019-03-23T00:06:31.451Z,43.27
2019-03-23T00:09:03.049Z,48.77
2019-03-23T00:11:33.414Z,39.67
2019-03-23T00:14:03.535Z,58.40
2019-03-23T00:16:33.813Z,62.47
2019-03-23T00:19:04.791Z,53.30
2019-03-23T00:21:35.176Z,78.57
2019-03-23T00:24:05.151Z,66.57
2019-03-23T00:26:40.872Z,38.27
2019-03-23T00:29:11.887Z,48.90
2019-03-23T00:31:49.564Z,38.80
2019-03-23T00:34:26.268Z,40.23
2019-03-23T00:36:56.721Z,33.90
2019-03-23T00:39:27.029Z,40.43
2019-03-23T00:41:57.905Z,35.67
2019-03-23T00:44:36.558Z,35.73
2019-03-23T00:47:06.893Z,29.97
2019-03-23T00:49:37.557Z,39.50
2019-03-23T00:52:07.858Z,36.17
2019-03-23T00:54:38.481Z,47.17
2019-03-23T00:57:09.345Z,34.20
2019-03-23T00:59:39.309Z,48.10
2019-03-23T01:02:09.275Z,40.20
2019-03-23T01:04:39.272Z,27.77
2019-03-23T01:07:09.592Z,53.93
2019-03-23T01:09:40.270Z,60.33
2019-03-23T01:12:11.689Z,43.90
2019-03-23T01:14:42.161Z,45.17
2019-03-23T01:17:12.719Z,43.23
2019-03-23T01:19:45.233Z,37.47
2019-03-23T01:22:15.279Z,36.73
2019-03-23T01:24:46.054Z,59.53
2019-03-23T01:27:16.719Z,61.07
2019-03-23T01:29:47.280Z,58.80
2019-03-23T01:32:17.345Z,61.53
2019-03-23T01:34:47.781Z,61.83
2019-03-23T01:37:18.504Z,75.70
2019-03-23T01:39:48.958Z,66.87
2019-03-23T01:42:19.364Z,74.20
2019-03-23T01:44:50.593Z,68.63
2019-03-23T01:47:20.956Z,28.57
2019-03-23T01:49:51.795Z,56.43
2019-03-23T01:52:21.815Z,65.70
2019-03-23T01:54:51.865Z,71.50
2019-03-23T01:57:22.306Z,56.23
2019-03-23T01:59:53.739Z,61.03
2019-03-23T02:02:24.106Z,59.77
2019-03-23T02:04:55.201Z,63.50
2019-03-23T02:07:25.252Z,58.23
2019-03-23T02:09:55.270Z,45.57
2019-03-23T02:12:25.609Z,66.00
2019-03-23T02:14:56.770Z,57.47
2019-03-23T02:17:26.701Z,47.80
2019-03-23T02:19:58.117Z,51.80
2019-03-23T02:22:28.290Z,59.20
2019-03-23T02:24:58.617Z,62.87
2019-03-23T02:27:28.770Z,42.27
2019-03-23T02:29:58.754Z,44.43
2019-03-23T02:32:29.422Z,64.67
2019-03-23T02:35:00.669Z,61.10
2019-03-23T02:37:31.104Z,44.53
2019-03-23T02:40:01.563Z,61.37
2019-03-23T02:42:31.775Z,57.77
2019-03-23T02:45:02.227Z,61.83
2019-03-23T02:47:33.473Z,49.17
2019-03-23T02:50:03.652Z,74.37
2019-03-23T02:52:35.108Z,81.37
2019-03-23T02:55:05.851Z,51.80
2019-03-23T02:57:36.268Z,53.43
2019-03-23T03:00:08.509Z,70.87
2019-03-23T03:02:46.924Z,55.93
2019-03-23T03:05:18.471Z,49.13
2019-03-23T03:07:48.493Z,66.00
2019-03-23T03:10:38.735Z,58.43
2019-03-23T03:13:09.126Z,69.90
2019-03-23T03:15:39.106Z,66.43
2019-03-23T03:18:19.711Z,67.13
2019-03-23T03:20:50.150Z,55.70
2019-03-23T03:23:20.248Z,49.30
2019-03-23T03:25:50.318Z,76.23
2019-03-23T03:28:20.339Z,50.50
2019-03-23T03:30:50.387Z,64.87
2019-03-23T03:33:20.765Z,50.20
2019-03-23T03:35:51.572Z,47.50
2019-03-23T03:38:21.580Z,61.90
2019-03-23T03:40:51.984Z,41.17
2019-03-23T03:43:22.605Z,35.03
2019-03-23T03:45:53.100Z,78.67
2019-03-23T03:48:23.646Z,66.13
2019-03-23T03:50:54.242Z,69.77
2019-03-23T03:53:25.145Z,48.57
2019-03-23T03:55:55.414Z,45.40
2019-03-23T03:58:25.745Z,65.77
2019-03-23T04:00:55.849Z,79.40
2019-03-23T04:03:26.736Z,91.73
2019-03-23T04:05:56.671Z,71.17
2019-03-23T04:08:27.254Z,76.10
2019-03-23T04:10:58.377Z,70.93
2019-03-23T04:13:28.473Z,56.27
2019-03-23T04:15:59.206Z,78.43
2019-03-23T04:18:29.529Z,40.53
2019-03-23T04:20:59.719Z,52.00
2019-03-23T04:23:40.063Z,40.50
2019-03-23T04:26:12.403Z,40.83
2019-03-23T04:28:42.446Z,31.93
2019-03-23T04:31:13.264Z,42.57
2019-03-23T04:33:49.600Z,43.43
2019-03-23T04:36:19.982Z,69.17
2019-03-23T04:38:59.528Z,48.70
2019-03-23T04:41:50.398Z,47.53
2019-03-23T04:44:21.774Z,62.27
2019-03-23T04:46:52.108Z,70.23
2019-03-23T04:49:22.984Z,38.23
2019-03-23T04:51:53.623Z,55.13
2019-03-23T04:54:24.045Z,55.30
2019-03-23T04:56:55.592Z,42.77
2019-03-23T04:59:26.057Z,65.80
2019-03-23T05:01:56.428Z,59.63
2019-03-23T05:04:26.531Z,43.30
2019-03-23T05:06:57.013Z,61.47
2019-03-23T05:09:27.737Z,18.57
2019-03-23T05:11:58.252Z,51.03
2019-03-23T05:14:28.747Z,28.80
2019-03-23T05:16:58.704Z,49.13
2019-03-23T05:19:28.768Z,39.03
2019-03-23T05:22:00.214Z,53.80
2019-03-23T05:24:30.878Z,69.60
2019-03-23T05:27:01.059Z,76.57
2019-03-23T05:29:31.398Z,47.33
2019-03-23T05:32:01.966Z,48.17
2019-03-23T05:34:33.004Z,74.53
2019-03-23T05:37:03.321Z,55.23
2019-03-23T05:39:33.621Z,19.13
2019-03-23T05:42:03.638Z,57.60
2019-03-23T05:44:33.709Z,45.80
2019-03-23T05:47:03.671Z,45.97
2019-03-23T05:49:33.847Z,38.67
2019-03-23T05:52:04.136Z,42.23
2019-03-23T05:54:35.249Z,34.87
2019-03-23T05:57:16.923Z,49.63
2019-03-23T06:00:00.392Z,41.87
2019-03-23T06:02:30.740Z,35.13
2019-03-23T06:05:00.729Z,42.40
2019-03-23T06:07:31.253Z,34.30
2019-03-23T06:10:02.354Z,43.90
2019-03-23T06:12:32.285Z,41.00
2019-03-23T06:15:02.661Z,48.90
2019-03-23T06:17:32.607Z,41.83
2019-03-23T06:20:04.714Z,45.20
2019-03-23T06:22:35.645Z,28.03
2019-03-23T06:25:08.214Z,43.53
2019-03-23T06:27:38.894Z,58.93
2019-03-23T06:30:09.407Z,40.43
2019-03-23T06:32:40.302Z,39.23
2019-03-23T06:35:10.774Z,47.60
2019-03-23T06:37:40.888Z,39.70
2019-03-23T06:40:12.114Z,48.07
2019-03-23T06:42:42.180Z,42.43
2019-03-23T06:45:12.688Z,35.33
2019-03-23T06:47:43.031Z,40.83
2019-03-23T06:50:13.786Z,20.10
2019-03-23T06:52:44.107Z,35.77
2019-03-23T06:55:14.241Z,35.97
2019-03-23T06:57:44.613Z,39.47
2019-03-23T07:00:15.089Z,39.93
2019-03-23T07:02:45.104Z,65.23
2019-03-23T07:05:15.694Z,46.60
2019-03-23T07:07:45.756Z,40.47
2019-03-23T07:10:16.251Z,44.00
2019-03-23T07:12:47.286Z,47.43
2019-03-23T07:15:20.295Z,53.60
2019-03-23T07:17:49.136Z,47.20
2019-03-23T07:20:19.533Z,39.97
2019-03-23T07:22:54.778Z,38.20
2019-03-23T07:25:24.063Z,50.00
2019-03-23T07:27:54.415Z,41.80
2019-03-23T07:30:24.885Z,41.27
2019-03-23T07:32:54.932Z,47.17
2019-03-23T07:35:25.751Z,43.30
2019-03-23T07:37:55.691Z,34.87
2019-03-23T07:40:26.013Z,52.93
2019-03-23T07:42:56.221Z,43.97
2019-03-23T07:45:26.277Z,46.97
2019-03-23T07:47:56.409Z,45.10
2019-03-23T07:50:26.572Z,54.37
2019-03-23T07:52:56.762Z,39.57
2019-03-23T07:55:27.175Z,32.37
2019-03-23T07:57:57.425Z,47.57
2019-03-23T08:00:27.528Z,47.00
2019-03-23T08:02:59.633Z,43.83
2019-03-23T08:05:29.761Z,49.40
2019-03-23T08:08:00.034Z,38.07
2019-03-23T08:10:31.696Z,33.90
2019-03-23T08:13:02.964Z,43.00
2019-03-23T08:15:33.139Z,46.03
2019-03-23T08:18:03.225Z,28.10
2019-03-23T08:20:40.530Z,42.10
2019-03-23T08:23:11.063Z,39.13
2019-03-23T08:25:42.227Z,33.07
2019-03-23T08:28:33.583Z,26.27
2019-03-23T08:31:00.323Z,43.70
2019-03-23T08:33:30.915Z,15.40
2019-03-23T08:36:01.377Z,35.83
2019-03-23T08:38:31.610Z,36.60
2019-03-23T08:41:01.708Z,38.93
2019-03-23T08:43:32.555Z,53.20
2019-03-23T08:46:15.263Z,42.47
2019-03-23T08:48:46.314Z,52.37
2019-03-23T08:51:17.213Z,38.13
2019-03-23T08:53:47.786Z,40.47
2019-03-23T08:56:18.097Z,34.33
2019-03-23T08:58:46.243Z,32.13
2019-03-23T09:01:16.626Z,30.53
2019-03-23T09:03:52.314Z,43.07
2019-03-23T09:06:19.238Z,40.80
2019-03-23T09:08:49.679Z,34.57
2019-03-23T09:11:20.849Z,31.90
2019-03-23T09:13:51.301Z,40.70
2019-03-23T09:16:21.633Z,30.93
2019-03-23T09:18:52.166Z,36.67
2019-03-23T09:21:22.809Z,34.37
2019-03-23T09:23:57.734Z,36.73
2019-03-23T09:26:28.276Z,31.10
2019-03-23T09:28:59.506Z,36.07
2019-03-23T09:31:30.257Z,36.07
2019-03-23T09:34:00.970Z,32.47
2019-03-23T09:36:31.550Z,30.97
2019-03-23T09:39:02.229Z,39.17
2019-03-23T09:41:32.420Z,46.13
2019-03-23T09:44:02.898Z,31.20
2019-03-23T09:46:33.321Z,42.27
2019-03-23T09:49:08.050Z,36.40
2019-03-23T09:51:38.467Z,31.97
2019-03-23T09:54:08.549Z,27.23
2019-03-23T09:56:39.102Z,42.77
2019-03-23T09:59:09.780Z,50.63
2019-03-23T10:01:48.401Z,48.50
2019-03-23T10:04:18.685Z,32.10
2019-03-23T10:06:48.677Z,26.97
2019-03-23T10:09:19.584Z,38.70
2019-03-23T10:11:49.699Z,30.27
2019-03-23T10:14:20.030Z,33.17
2019-03-23T10:16:51.135Z,35.53
2019-03-23T10:19:23.281Z,30.33
2019-03-23T10:21:54.272Z,29.07
2019-03-23T10:24:24.799Z,33.33
2019-03-23T10:26:55.776Z,36.50
2019-03-23T10:29:26.114Z,45.70
2019-03-23T10:31:56.159Z,37.70
2019-03-23T10:34:26.574Z,38.13
2019-03-23T10:36:57.512Z,32.00
2019-03-23T10:39:27.609Z,61.83
2019-03-23T10:41:58.396Z,28.43
2019-03-23T10:44:29.211Z,53.87
2019-03-23T10:46:59.666Z,47.30
2019-03-23T10:49:30.073Z,48.80
2019-03-23T10:52:00.785Z,33.73
2019-03-23T10:54:31.230Z,44.93
2019-03-23T10:57:01.334Z,31.27
2019-03-23T10:59:31.918Z,39.40
2019-03-23T11:02:02.048Z,38.87
2019-03-23T11:04:32.347Z,37.33
2019-03-23T11:07:03.130Z,32.80
2019-03-23T11:09:33.432Z,33.67
2019-03-23T11:12:03.718Z,36.60
2019-03-23T11:14:33.923Z,44.63
2019-03-23T11:17:04.450Z,20.70
2019-03-23T11:19:34.784Z,42.43
2019-03-23T11:22:05.279Z,37.87
2019-03-23T11:24:35.390Z,51.90
2019-03-23T11:27:06.586Z,43.27
2019-03-23T11:29:38.749Z,41.83
2019-03-23T11:32:09.395Z,48.67
2019-03-23T11:34:39.973Z,50.07
2019-03-23T11:37:10.504Z,37.27
2019-03-23T11:39:40.982Z,34.57
2019-03-23T11:42:11.040Z,49.30
2019-03-23T11:44:41.032Z,40.83
2019-03-23T11:47:11.139Z,35.67
2019-03-23T11:49:41.662Z,54.97
2019-03-23T11:52:12.137Z,40.43
2019-03-23T11:54:43.421Z,57.90
2019-03-23T11:57:13.767Z,35.90
2019-03-23T11:59:43.736Z,39.63
2019-03-23T12:02:16.795Z,59.37
2019-03-23T12:04:47.092Z,37.13
2019-03-23T12:07:17.520Z,33.23
2019-03-23T12:09:47.579Z,31.93
2019-03-23T12:12:18.871Z,45.73
2019-03-23T12:14:49.180Z,39.80
2019-03-23T12:17:19.614Z,27.83
2019-03-23T12:19:49.585Z,56.10
2019-03-23T12:22:25.693Z,49.60
2019-03-23T12:24:56.268Z,24.47
2019-03-23T12:27:26.276Z,50.17
2019-03-23T12:30:06.552Z,43.50
2019-03-23T12:32:28.284Z,58.93
2019-03-23T12:34:58.675Z,51.17
2019-03-23T12:37:28.910Z,53.37
2019-03-23T12:40:00.454Z,46.77
2019-03-23T12:42:30.900Z,49.53
2019-03-23T12:45:01.620Z,51.27
2019-03-23T12:47:31.651Z,47.27
2019-03-23T12:50:01.925Z,48.60
2019-03-23T12:52:34.866Z,52.57
2019-03-23T12:55:05.823Z,36.83
2019-03-23T12:57:36.596Z,32.63
2019-03-23T13:00:07.716Z,49.20
2019-03-23T13:02:38.097Z,34.90
2019-03-23T13:05:09.774Z,36.90
2019-03-23T13:07:40.914Z,46.47
2019-03-23T13:10:18.805Z,31.33
2019-03-23T13:12:49.336Z,37.90
2019-03-23T13:15:19.538Z,28.77
2019-03-23T13:18:03.728Z,20.97
2019-03-23T13:23:05.581Z,24.37
2019-03-23T13:25:35.840Z,24.73
2019-03-23T13:28:06.545Z,22.87
2019-03-23T13:30:39.736Z,22.87
2019-03-23T13:33:57.220Z,15.30
2019-03-23T13:36:28.350Z,15.13
2019-03-23T13:38:58.884Z,6.90
2019-03-23T13:41:29.775Z,14.37
2019-03-23T13:44:01.548Z,7.87
2019-03-23T13:46:31.970Z,17.50
2019-03-23T13:49:02.442Z,12.77
2019-03-23T13:51:32.958Z,7.20
2019-03-23T13:54:03.452Z,9.67
2019-03-23T13:56:33.612Z,9.67
2019-03-23T13:59:05.999Z,6.70
2019-03-23T14:01:36.529Z,7.80
2019-03-23T14:04:06.587Z,5.03
2019-03-23T14:06:37.295Z,3.50
2019-03-23T14:09:08.762Z,8.93
2019-03-23T14:11:40.662Z,11.53
2019-03-23T14:14:14.375Z,11.57
2019-03-23T14:16:44.719Z,7.80
2019-03-23T14:19:14.934Z,8.20
2019-03-23T14:21:45.228Z,5.77
2019-03-23T14:24:15.804Z,14.30
2019-03-23T14:26:45.976Z,6.93
2019-03-23T14:29:16.779Z,5.57
2019-03-23T14:31:47.954Z,7.93
2019-03-23T14:34:18.602Z,7.17
2019-03-23T14:36:49.551Z,7.20
2019-03-23T14:39:20.116Z,8.53
2019-03-23T14:41:50.736Z,7.07
2019-03-23T14:44:21.306Z,6.53
2019-03-23T14:46:52.392Z,4.20
2019-03-23T14:49:23.490Z,9.53
2019-03-23T14:51:55.276Z,8.83
2019-03-23T14:54:25.563Z,9.93
2019-03-23T14:56:56.090Z,6.67
2019-03-23T14:59:26.664Z,10.80
2019-03-23T15:01:57.301Z,6.07
2019-03-23T15:04:27.591Z,5.83
2019-03-23T15:06:57.957Z,10.13
2019-03-23T15:09:28.484Z,7.10
2019-03-23T15:11:59.701Z,9.10
2019-03-23T15:14:30.111Z,10.17
2019-03-23T15:17:01.840Z,5.53
2019-03-23T15:19:32.298Z,8.43
2019-03-23T15:22:02.333Z,11.93
2019-03-23T15:24:33.038Z,8.37
2019-03-23T15:27:22.694Z,2.50
2019-03-23T15:29:53.764Z,16.37
2019-03-23T15:32:24.210Z,6.07
2019-03-23T15:34:54.396Z,6.80
2019-03-23T15:37:24.822Z,10.83
2019-03-23T15:39:55.057Z,15.07
2019-03-23T15:42:25.304Z,8.33
2019-03-23T15:44:55.632Z,12.17
2019-03-23T15:47:25.712Z,8.50
2019-03-23T15:49:55.903Z,6.23
2019-03-23T15:52:34.644Z,10.57
2019-03-23T15:55:05.581Z,15.43
2019-03-23T15:57:35.721Z,7.83
2019-03-23T16:00:07.245Z,8.10
2019-03-23T16:02:37.688Z,15.67
2019-03-23T16:05:10.182Z,9.13
2019-03-23T16:07:42.230Z,12.50
2019-03-23T16:10:12.926Z,8.20
2019-03-23T16:12:43.610Z,16.43
2019-03-23T16:15:14.016Z,12.63
2019-03-23T16:17:44.185Z,6.03
2019-03-23T16:20:14.822Z,6.30
2019-03-23T16:22:51.140Z,11.30
2019-03-23T16:25:21.502Z,19.07
2019-03-23T16:27:51.761Z,9.40
2019-03-23T16:30:31.214Z,12.87
2019-03-23T16:33:01.546Z,5.47
2019-03-23T16:35:32.288Z,11.20
2019-03-23T16:38:02.644Z,16.50
2019-03-23T16:40:33.254Z,10.23
2019-03-23T16:43:06.188Z,14.33
2019-03-23T16:45:35.551Z,16.30
2019-03-23T16:48:06.102Z,13.60
2019-03-23T16:50:36.158Z,10.33
2019-03-23T16:53:06.171Z,11.40
2019-03-23T16:55:36.158Z,9.17
2019-03-23T16:58:15.785Z,9.03
2019-03-23T17:00:46.412Z,17.23
2019-03-23T17:03:16.702Z,13.93
2019-03-23T17:05:46.825Z,12.13
2019-03-23T17:08:17.580Z,11.90
2019-03-23T17:10:48.203Z,13.17
2019-03-23T17:13:34.783Z,10.57
2019-03-23T17:16:05.966Z,19.80
2019-03-23T17:18:38.176Z,18.07
2019-03-23T17:21:08.780Z,13.77
2019-03-23T17:23:39.300Z,8.97
2019-03-23T17:26:10.031Z,13.87
2019-03-23T17:28:40.335Z,12.90
2019-03-23T17:31:12.112Z,7.07
2019-03-23T17:33:48.220Z,9.73
2019-03-23T17:36:22.607Z,17.30
2019-03-23T17:38:53.195Z,11.47
2019-03-23T17:41:24.580Z,7.87
2019-03-23T17:43:54.637Z,8.07
2019-03-23T17:46:27.782Z,3.23
2019-03-23T17:48:58.393Z,12.57
2019-03-23T17:51:30.570Z,14.90
2019-03-23T17:54:02.691Z,9.50
2019-03-23T17:56:32.949Z,13.03
2019-03-23T17:59:05.238Z,13.63
2019-03-23T18:01:35.491Z,16.97
2019-03-23T18:04:06.339Z,12.17
2019-03-23T18:06:37.615Z,8.57
2019-03-23T18:09:09.257Z,3.07
2019-03-23T18:11:41.568Z,10.27
2019-03-23T18:14:12.338Z,7.27
2019-03-23T18:16:43.134Z,6.90
2019-03-23T18:19:13.138Z,5.50
2019-03-23T18:21:43.933Z,10.67
2019-03-23T18:24:14.803Z,8.37
2019-03-23T18:26:44.893Z,6.93
2019-03-23T18:29:14.974Z,8.97
2019-03-23T18:31:45.657Z,8.97
2019-03-23T18:34:16.312Z,5.37
2019-03-23T18:36:47.663Z,6.27
2019-03-23T18:39:27.077Z,12.87
2019-03-23T18:42:08.065Z,5.73
2019-03-23T18:44:38.849Z,16.83
2019-03-23T18:47:09.299Z,12.30
2019-03-23T18:49:40.460Z,6.47
2019-03-23T18:52:11.523Z,18.80
2019-03-23T18:54:43.379Z,4.57
2019-03-23T18:57:13.493Z,8.07
2019-03-23T18:59:49.646Z,9.67
2019-03-23T19:02:21.333Z,12.20
2019-03-23T19:04:51.795Z,10.90
2019-03-23T19:07:23.210Z,9.97
2019-03-23T19:09:54.200Z,8.63
2019-03-23T19:12:32.091Z,5.30
2019-03-23T19:15:03.584Z,16.00
2019-03-23T19:17:46.208Z,10.20
2019-03-23T19:21:10.208Z,14.47
2019-03-23T19:24:39.300Z,7.70
2019-03-23T19:27:11.334Z,7.60
2019-03-23T19:29:44.475Z,11.80
2019-03-23T19:32:17.905Z,7.93
2019-03-23T19:34:48.843Z,6.50
2019-03-23T19:37:19.203Z,7.83
2019-03-23T19:39:50.477Z,4.43
2019-03-23T19:42:21.862Z,4.97
2019-03-23T19:44:52.345Z,8.83
2019-03-23T19:47:24.776Z,8.10
2019-03-23T19:50:03.334Z,6.93
2019-03-23T19:52:46.770Z,6.27
2019-03-23T19:55:16.988Z,7.30
2019-03-23T19:57:47.192Z,4.93
2019-03-23T20:00:17.963Z,7.03
2019-03-23T20:02:48.446Z,8.63
2019-03-23T20:05:18.581Z,7.20
2019-03-23T20:07:49.017Z,5.80
2019-03-23T20:10:19.347Z,11.63
2019-03-23T20:12:49.993Z,11.27
2019-03-23T20:15:20.643Z,14.23
2019-03-23T20:17:51.114Z,5.70
2019-03-23T20:20:22.277Z,7.80
2019-03-23T20:22:53.123Z,9.13
2019-03-23T20:25:24.619Z,5.47
2019-03-23T20:27:54.949Z,6.83
2019-03-23T20:30:26.374Z,5.37
2019-03-23T20:32:56.718Z,6.83
2019-03-23T20:35:26.863Z,5.83
2019-03-23T20:38:02.141Z,5.03
2019-03-23T20:40:33.740Z,7.40
2019-03-23T20:43:08.456Z,7.53
2019-03-23T20:45:39.120Z,9.90
2019-03-23T20:48:09.704Z,6.63
2019-03-23T20:50:43.147Z,9.50
2019-03-23T20:53:16.621Z,6.30
2019-03-23T20:55:47.178Z,6.60
2019-03-23T20:58:18.162Z,4.57
2019-03-23T21:00:49.797Z,6.53
2019-03-23T21:03:24.744Z,7.00
2019-03-23T21:05:55.317Z,7.43
2019-03-23T21:08:26.934Z,4.30
2019-03-23T21:10:57.241Z,5.50
2019-03-23T21:13:29.013Z,4.33
2019-03-23T21:16:01.890Z,8.17
2019-03-23T21:18:40.154Z,5.23
2019-03-23T21:21:20.277Z,7.97
2019-03-23T21:23:52.134Z,4.80
2019-03-23T21:26:23.954Z,5.20
2019-03-23T21:28:54.321Z,4.27
2019-03-23T21:31:24.881Z,3.20
2019-03-23T21:33:55.039Z,10.23
2019-03-23T21:36:29.439Z,3.63
2019-03-23T21:39:07.528Z,3.57
2019-03-23T21:41:38.866Z,4.77
2019-03-23T21:44:08.987Z,7.20
2019-03-23T21:46:48.141Z,2.00
2019-03-23T21:49:19.899Z,2.67
2019-03-23T21:51:51.857Z,5.77
2019-03-23T21:54:22.503Z,4.50
2019-03-23T21:56:53.175Z,3.10
2019-03-23T21:59:26.097Z,4.03
2019-03-23T22:01:56.319Z,6.83
2019-03-23T22:04:35.699Z,3.33
2019-03-23T22:07:06.462Z,3.83
2019-03-23T22:09:37.641Z,4.17
2019-03-23T22:12:08.546Z,7.33
2019-03-23T22:14:48.844Z,4.63
2019-03-23T22:17:21.803Z,3.73
2019-03-23T22:19:52.876Z,8.37
2019-03-23T22:22:23.287Z,4.70
2019-03-23T22:24:54.197Z,2.73
2019-03-23T22:27:24.636Z,5.23
2019-03-23T22:29:55.371Z,7.93
2019-03-23T22:32:26.105Z,5.23
2019-03-23T22:34:57.831Z,5.30
2019-03-23T22:37:28.047Z,7.73
2019-03-23T22:39:59.749Z,3.13
2019-03-23T22:42:31.887Z,5.37
2019-03-23T22:45:03.023Z,2.53
2019-03-23T22:47:33.664Z,9.10
2019-03-23T22:50:04.324Z,3.80
2019-03-23T22:52:35.345Z,7.70
2019-03-23T22:55:09.851Z,4.57
2019-03-23T22:57:41.159Z,2.93
2019-03-23T23:00:14.072Z,3.37
2019-03-23T23:02:44.769Z,2.50
2019-03-23T23:05:15.478Z,7.30
2019-03-23T23:07:45.912Z,1.90
2019-03-23T23:10:16.475Z,1.93
2019-03-23T23:12:48.149Z,2.27
2019-03-23T23:15:18.537Z,6.73
2019-03-23T23:17:48.566Z,5.90
2019-03-23T23:20:19.245Z,4.03
2019-03-23T23:22:50.059Z,7.27
2019-03-23T23:25:20.280Z,3.43
2019-03-23T23:27:50.608Z,4.83
2019-03-23T23:30:21.011Z,5.00
2019-03-23T23:32:51.175Z,5.37
2019-03-23T23:35:21.916Z,7.23
2019-03-23T23:37:52.017Z,3.50
2019-03-23T23:40:22.479Z,4.90
2019-03-23T23:42:53.203Z,5.87
2019-03-23T23:45:23.844Z,9.63
2019-03-23T23:47:54.639Z,3.03
2019-03-23T23:50:24.969Z,5.63
2019-03-23T23:52:55.897Z,2.80
2019-03-23T23:55:26.388Z,5.23
2019-03-23T23:57:57.534Z,9.37
